createdAt,value
2024-05-09T00:01:57.464Z,71.76
2024-05-09T00:06:58.881Z,71.54
2024-05-09T00:12:00.483Z,71.65
2024-05-09T00:17:02.098Z,71.95
2024-05-09T00:22:03.782Z,72.17
2024-05-09T00:27:05.496Z,72.21
2024-05-09T00:32:09.143Z,72.09
2024-05-09T00:37:10.793Z,72.72
2024-05-09T00:42:14.464Z,73.16
2024-05-09T00:47:16.233Z,72.81
2024-05-09T00:52:20.397Z,72.96
2024-05-09T00:57:22.678Z,73.89
2024-05-09T01:02:24.350Z,73.85
2024-05-09T01:07:25.915Z,74.29
2024-05-09T01:12:27.429Z,73.99
2024-05-09T01:17:29.427Z,74.13
2024-05-09T01:22:32.486Z,74.50
2024-05-09T01:27:34.116Z,74.42
2024-05-09T01:32:36.145Z,74.88
2024-05-09T01:37:37.925Z,74.50
2024-05-09T01:42:39.588Z,74.57
2024-05-09T01:47:41.577Z,74.38
2024-05-09T01:52:43.306Z,74.78
2024-05-09T01:57:46.144Z,73.51
2024-05-09T02:02:47.963Z,71.48
2024-05-09T02:07:49.474Z,70.19
2024-05-09T02:12:50.952Z,70.48
2024-05-09T02:17:52.585Z,69.96
2024-05-09T02:22:54.194Z,70.69
2024-05-09T02:27:56.015Z,69.31
2024-05-09T02:32:57.499Z,69.62
2024-05-09T02:37:59.080Z,70.24
2024-05-09T02:43:01.033Z,70.30
2024-05-09T02:48:02.923Z,71.04
2024-05-09T02:53:04.853Z,70.90
2024-05-09T02:58:10.384Z,70.28
2024-05-09T03:03:14.256Z,70.31
2024-05-09T03:08:17.392Z,69.43
2024-05-09T03:13:19.093Z,69.41
2024-05-09T03:18:20.555Z,68.43
2024-05-09T03:23:22.726Z,68.04
2024-05-09T03:28:24.367Z,67.40
2024-05-09T03:33:26.308Z,68.49
2024-05-09T03:38:28.296Z,68.48
2024-05-09T03:43:29.916Z,67.82
2024-05-09T03:48:35.121Z,68.67
2024-05-09T03:53:36.699Z,68.26
2024-05-09T03:58:38.190Z,68.77
2024-05-09T04:03:39.740Z,67.93
2024-05-09T04:08:41.455Z,68.33
2024-05-09T04:13:43.271Z,68.15
2024-05-09T04:18:45.615Z,68.22
2024-05-09T04:23:47.111Z,67.05
2024-05-09T04:28:48.805Z,66.93
2024-05-09T04:33:50.933Z,67.14
2024-05-09T04:38:52.918Z,67.66
2024-05-09T04:43:54.708Z,68.57
2024-05-09T04:48:56.193Z,68.30
2024-05-09T04:53:58.823Z,68.15
2024-05-09T04:59:00.468Z,68.41
2024-05-09T05:04:03.243Z,68.20
2024-05-09T05:09:05.280Z,69.02
2024-05-09T05:14:06.964Z,68.69
2024-05-09T05:19:11.456Z,69.06
2024-05-09T05:24:14.107Z,69.64
2024-05-09T05:29:16.490Z,70.00
2024-05-09T05:34:19.409Z,68.89
2024-05-09T05:39:21.031Z,69.79
2024-05-09T05:44:23.566Z,70.02
2024-05-09T05:49:25.400Z,69.87
2024-05-09T05:54:27.357Z,68.99
2024-05-09T05:59:29.346Z,68.79
2024-05-09T06:04:31.032Z,68.82
2024-05-09T06:09:33.354Z,68.21
2024-05-09T06:14:35.586Z,67.28
2024-05-09T06:19:37.155Z,68.42
2024-05-09T06:24:38.673Z,67.09
2024-05-09T06:29:40.188Z,66.82
2024-05-09T06:34:41.663Z,67.25
2024-05-09T06:39:45.746Z,66.12
2024-05-09T06:44:47.224Z,65.91
2024-05-09T06:49:49.122Z,64.39
2024-05-09T06:54:50.668Z,64.93
2024-05-09T06:59:52.267Z,65.00
2024-05-09T07:04:54.246Z,64.84
2024-05-09T07:09:55.869Z,65.11
2024-05-09T07:14:57.249Z,64.38
2024-05-09T07:19:58.845Z,63.73
2024-05-09T07:25:03.614Z,62.91
2024-05-09T07:30:09.386Z,63.28
2024-05-09T07:35:14.623Z,62.58
2024-05-09T07:40:24.894Z,61.88
2024-05-09T07:55:46.289Z,61.38
2024-05-09T08:00:47.915Z,60.35
2024-05-09T08:05:49.929Z,60.25
2024-05-09T08:10:51.499Z,58.88
2024-05-09T08:15:53.118Z,57.97
2024-05-09T08:20:54.615Z,58.31
2024-05-09T08:25:56.029Z,56.58
2024-05-09T08:30:57.626Z,55.98
2024-05-09T08:35:59.239Z,55.59
2024-05-09T08:41:03.817Z,53.54
2024-05-09T08:46:07.629Z,51.20
2024-05-09T08:51:09.227Z,52.32
2024-05-09T08:56:12.851Z,51.44
2024-05-09T09:01:15.674Z,50.18
2024-05-09T09:06:21.702Z,50.90
2024-05-09T09:11:23.452Z,45.67
2024-05-09T09:16:33.021Z,48.46
2024-05-09T09:21:36.129Z,46.97
2024-05-09T09:26:37.522Z,43.48
2024-05-09T09:31:39.236Z,44.12
2024-05-09T09:36:45.456Z,43.35
2024-05-09T09:41:48.106Z,42.19
2024-05-09T09:46:55.189Z,39.37
2024-05-09T09:51:57.236Z,39.17
2024-05-09T09:57:00.927Z,40.43
2024-05-09T10:02:03.238Z,40.18
2024-05-09T10:07:11.474Z,39.86
2024-05-09T10:12:15.644Z,39.49
2024-05-09T10:17:18.208Z,39.64
2024-05-09T10:22:29.168Z,39.02
2024-05-09T10:27:32.166Z,39.17
2024-05-09T10:32:40.125Z,38.05
2024-05-09T10:37:42.221Z,39.45
2024-05-09T10:42:44.862Z,37.92
2024-05-09T10:47:46.513Z,36.67
2024-05-09T10:52:47.953Z,37.11
2024-05-09T10:57:49.679Z,37.33
2024-05-09T11:02:54.129Z,36.45
2024-05-09T11:07:55.668Z,35.55
2024-05-09T11:12:57.292Z,33.74
2024-05-09T11:17:59.000Z,35.12
2024-05-09T11:23:05.072Z,35.09
2024-05-09T11:28:07.247Z,33.70
2024-05-09T11:33:11.749Z,34.33
2024-05-09T11:38:13.750Z,34.93
2024-05-09T11:43:15.206Z,33.54
2024-05-09T11:48:16.996Z,33.47
2024-05-09T11:53:27.514Z,32.88
2024-05-09T11:58:34.147Z,34.01
2024-05-09T12:03:37.691Z,33.84
2024-05-09T12:08:39.341Z,33.03
2024-05-09T12:13:40.959Z,33.58
2024-05-09T12:18:42.500Z,33.75
2024-05-09T12:23:44.137Z,34.83
2024-05-09T12:28:45.580Z,34.02
2024-05-09T12:33:47.325Z,33.58
2024-05-09T12:38:49.994Z,33.40
2024-05-09T12:43:51.359Z,31.53
2024-05-09T12:48:53.389Z,32.91
2024-05-09T12:53:54.951Z,32.75
2024-05-09T12:58:57.418Z,33.79
2024-05-09T13:03:59.047Z,35.16
2024-05-09T13:09:00.859Z,34.12
2024-05-09T13:14:02.295Z,35.62
2024-05-09T13:19:04.157Z,35.25
2024-05-09T13:24:08.542Z,34.95
2024-05-09T13:29:10.276Z,34.55
2024-05-09T13:34:12.019Z,33.88
2024-05-09T13:39:13.451Z,34.06
2024-05-09T13:44:15.482Z,34.07
2024-05-09T13:49:17.654Z,34.34
2024-05-09T13:54:22.722Z,33.64
2024-05-09T13:59:24.505Z,34.54
2024-05-09T14:04:27.869Z,34.61
2024-05-09T14:09:29.899Z,35.29
2024-05-09T14:14:31.332Z,35.22
2024-05-09T14:19:32.776Z,35.01
2024-05-09T14:24:34.332Z,35.09
2024-05-09T14:29:37.035Z,34.46
2024-05-09T14:34:38.907Z,35.21
2024-05-09T14:39:40.815Z,35.79
2024-05-09T14:44:42.858Z,35.64
2024-05-09T14:49:47.500Z,35.70
2024-05-09T14:54:56.442Z,38.30
2024-05-09T15:00:05.184Z,37.15
2024-05-09T15:05:10.839Z,37.68
2024-05-09T15:10:23.800Z,37.40
2024-05-09T15:15:33.725Z,38.19
2024-05-09T15:20:37.010Z,36.99
2024-05-09T15:25:40.207Z,36.87
2024-05-09T15:30:45.475Z,37.25
2024-05-09T15:35:53.566Z,36.60
2024-05-09T15:40:56.638Z,35.59
2024-05-09T15:45:58.554Z,36.05
2024-05-09T15:51:00.246Z,35.74
2024-05-09T15:56:02.227Z,36.35
2024-05-09T16:01:08.228Z,36.55
2024-05-09T16:06:09.972Z,36.62
2024-05-09T16:11:12.951Z,36.89
2024-05-09T16:16:15.196Z,36.98
2024-05-09T16:21:16.659Z,36.65
2024-05-09T16:26:18.064Z,36.52
2024-05-09T16:31:19.547Z,37.00
2024-05-09T16:36:21.282Z,37.39
2024-05-09T16:41:24.778Z,37.22
2024-05-09T16:46:28.045Z,37.92
2024-05-09T16:51:29.460Z,37.62
2024-05-09T16:56:31.204Z,37.83
2024-05-09T17:01:32.746Z,38.41
2024-05-09T17:06:34.635Z,38.52
2024-05-09T17:11:38.900Z,38.10
2024-05-09T17:16:40.855Z,38.82
2024-05-09T17:21:42.417Z,38.80
2024-05-09T17:26:44.428Z,39.42
2024-05-09T17:31:47.771Z,39.92
2024-05-09T17:36:49.216Z,39.90
2024-05-09T17:41:52.944Z,39.24
2024-05-09T17:46:55.742Z,39.56
2024-05-09T17:51:58.910Z,39.88
2024-05-09T17:57:01.076Z,40.57
2024-05-09T18:02:02.622Z,40.89
2024-05-09T18:07:04.833Z,40.82
2024-05-09T18:12:06.962Z,41.03
2024-05-09T18:17:11.849Z,42.46
2024-05-09T18:22:14.499Z,42.42
2024-05-09T18:27:16.454Z,43.68
2024-05-09T18:32:18.091Z,45.51
2024-05-09T18:37:19.813Z,44.91
2024-05-09T18:42:21.451Z,44.92
2024-05-09T18:47:23.195Z,45.00
2024-05-09T18:52:24.820Z,43.81
2024-05-09T18:57:26.642Z,44.66
2024-05-09T19:02:30.702Z,45.22
2024-05-09T19:07:32.203Z,45.25
2024-05-09T19:12:33.656Z,45.27
2024-05-09T19:17:35.249Z,45.27
2024-05-09T19:22:39.796Z,45.66
2024-05-09T19:27:42.934Z,45.67
2024-05-09T19:32:44.472Z,45.00
2024-05-09T19:37:48.740Z,45.90
2024-05-09T19:42:50.446Z,45.49
2024-05-09T19:47:52.067Z,45.56
2024-05-09T19:52:53.827Z,46.03
2024-05-09T19:57:55.272Z,46.14
2024-05-09T20:02:57.064Z,45.37
2024-05-09T20:07:59.554Z,44.55
2024-05-09T20:13:01.770Z,45.14
2024-05-09T20:18:05.622Z,44.66
2024-05-09T20:23:07.590Z,44.84
2024-05-09T20:28:09.979Z,44.25
2024-05-09T20:33:13.942Z,44.28
2024-05-09T20:38:15.595Z,44.68
2024-05-09T20:43:17.811Z,45.57
2024-05-09T20:48:20.152Z,45.60
2024-05-09T20:53:21.634Z,45.78
2024-05-09T20:58:23.524Z,47.13
2024-05-09T21:03:25.333Z,47.39
2024-05-09T21:08:27.158Z,47.45
2024-05-09T21:13:28.690Z,47.22
2024-05-09T21:18:32.625Z,48.19
2024-05-09T21:23:34.121Z,48.38
2024-05-09T21:28:35.589Z,48.21
2024-05-09T21:33:37.337Z,48.68
2024-05-09T21:38:44.925Z,48.90
2024-05-09T21:43:46.326Z,49.54
2024-05-09T21:48:48.047Z,49.56
2024-05-09T21:53:49.569Z,49.80
2024-05-09T21:58:51.228Z,49.53
2024-05-09T22:03:52.948Z,50.39
2024-05-09T22:08:54.581Z,50.88
2024-05-09T22:13:55.989Z,50.92
2024-05-09T22:18:58.810Z,51.53
2024-05-09T22:24:00.475Z,52.58
2024-05-09T22:29:06.432Z,52.24
2024-05-09T22:34:08.883Z,52.60
2024-05-09T22:39:10.401Z,52.59
2024-05-09T22:44:12.043Z,52.36
2024-05-09T22:49:14.955Z,51.69
2024-05-09T22:54:16.409Z,52.47
2024-05-09T22:59:18.720Z,52.75
2024-05-09T23:04:20.221Z,53.02
2024-05-09T23:09:22.685Z,53.03
2024-05-09T23:14:24.097Z,53.08
2024-05-09T23:19:28.156Z,53.39
2024-05-09T23:24:30.553Z,53.41
2024-05-09T23:29:32.798Z,52.98
2024-05-09T23:34:35.308Z,53.70
2024-05-09T23:39:36.824Z,53.21
2024-05-09T23:44:38.268Z,53.23
2024-05-09T23:49:39.801Z,53.68
2024-05-09T23:54:42.512Z,53.10
2024-05-09T23:59:44.023Z,52.86
